WEATHER DATA

YESTERDAY
Time Temp. Dewp. Hum. Bar.
00:00 15.5 11.5 77 1018
00:11 15.4 11.4 77 1018.3
00:21 15.3 11.3 77 1018.2
00:30 15.2 11 76 1018.2
00:41 15.1 10.9 76 1018.3
00:51 15 10.8 76 1018.3
01:01 15 10.8 76 1018.7
01:10 14.9 10.7 76 1018.8
01:21 14.8 10.4 75 1018.9
01:31 14.7 10.1 74 1019.2
01:51 14.4 10.2 76 1019.3
02:01 14.2 10.2 77 1019
02:11 13.9 9.7 76 1019.6
02:21 13.8 9.5 75 1019.8
02:41 13.3 8.8 74 1019.9
02:51 13.1 8.8 75 1020
03:02 12.9 8.8 76 1020.1
03:12 12.7 8.6 76 1020
03:21 12.6 8.5 76 1020.2
03:31 12.4 8.3 76 1020.3
03:42 12.4 8.3 76 1020
03:52 12.2 8.1 76 1020
04:01 12 7.7 75 1020.1
04:12 11.9 7.6 75 1020.2
04:22 11.8 7.3 74 1020.2
04:32 11.7 7.4 75 1020.3
04:41 11.6 7.1 74 1020.3
04:52 11.5 7 74 1020.4
05:02 11.4 7.1 75 1020.4
05:12 11.4 6.9 74 1020.9
05:22 11.4 6.9 74 1020.9
05:32 11.4 6.9 74 1021.2
05:42 11.5 7 74 1021.2
05:52 11.5 7 74 1021.1
06:03 11.5 6.6 72 1021.4
06:12 11.5 6.4 71 1021.5
06:22 11.5 6.2 70 1021.4
06:33 11.4 6.1 70 1021.6
06:43 11.5 6 69 1021.5
06:52 11.6 6.3 70 1021.4
07:02 11.6 6.1 69 1021.3
07:13 11.5 5.8 68 1021.2
07:23 11.4 5.9 69 1021.4
07:32 11.4 5.9 69 1021.4
07:43 11.4 5.9 69 1021.5
07:53 11.3 5.4 67 1021.4
08:03 11.4 5.7 68 1021.3
08:13 11.7 5.3 65 1021.3
08:23 12 5.4 64 1021.3
08:33 12.3 4.8 60 1021.2
08:43 12.7 3.9 55 1021.4
08:53 12.8 4 55 1021.4
09:03 12.8 4.3 56 1021.4
09:13 12.9 3.6 53 1021.3
09:23 12.7 3.9 55 1021.4
09:34 12.7 3.4 53 1021.5
09:43 12.9 3.8 54 1021.4
09:53 13.2 4.1 54 1021.2
10:04 13.7 3.5 50 1021
10:14 14.1 2.7 46 1021.1
10:23 14.4 2.6 45 1021.1
10:33 14.7 3.2 46 1021.1
10:44 14.6 2.5 44 1021.2
10:54 14.8 2.7 44 1021.3
11:03 14.7 1.9 42 1021.6
11:14 14.9 2.4 43 1021.8
11:24 14.8 2 42 1021.8
11:34 14.6 1.8 42 1022.1
11:44 14.6 2.5 44 1022
11:54 14.9 2.4 43 1021.9
12:04 14.5 1.8 42 1021.9
12:14 14.3 2.2 44 1022.1
12:24 14.2 2.1 44 1022
12:34 14.4 2.3 44 1022
12:44 14.3 2.5 45 1022
12:54 14.6 2.2 43 1021.9
13:04 14.7 2.6 44 1021.9
13:14 14.4 1 40 1021.9
13:24 14.3 2.5 45 1022
13:35 13.9 2.2 45 1022.3
13:45 13.4 1.7 45 1022.2
13:54 13.3 2.2 47 1022.2
14:05 13.1 2.6 49 1022
14:15 13.1 2.3 48 1022.1
14:25 13.1 2.6 49 1022.1
14:34 13.1 2.6 49 1022.2
14:45 13 2.8 50 1022.1
14:55 12.9 3 51 1022.1
15:05 12.9 3 51 1022.1
15:15 12.9 3.3 52 1022.1
15:25 13 3.7 53 1021.9
15:35 13.4 3.8 52 1022
15:45 13.2 3.6 52 1022
15:55 13.1 3.7 53 1022.1
16:05 12.8 4.3 56 1022.3
16:15 11.8 4.5 61 1022.5
16:25 11.5 4 60 1022.7
16:35 11.5 4 60 1022.7
16:45 11.3 4.5 63 1022.9
16:55 11.6 5.7 67 1022.6
17:15 12.8 6.2 64 1022.4
17:25 13.9 5.8 58 1022.4
17:36 15.5 5.4 51 1022.4
17:46 14.6 5.1 53 1022.6
17:56 13.2 4.4 55 1022.6
18:05 12.5 4 56 1022.7
18:16 12.1 3.8 57 1022.6
18:26 11.4 3.7 59 1023.1
18:36 10.8 4.5 65 1023.1
18:46 11.2 5.3 67 1023.1
18:56 13.5 6.4 62 1023
19:06 15.2 6.2 55 1023.2
19:16 15.7 5.9 52 1023.2
19:26 14.1 5.2 55 1023.3
19:36 12.6 4.8 59 1023.4
19:46 11.8 5 63 1023.4
19:57 11.5 4.9 64 1023.5
20:06 11.1 4.8 65 1023.6
20:16 10.7 4.8 67 1023.7
20:26 10.4 4.8 68 1023.7
20:37 10 4.6 69 1023.7
20:46 9.9 4.3 68 1023.8
20:56 9.8 4.6 70 1023.8
21:07 9.5 4.7 72 1024.1
21:16 9.1 4.1 71 1024.2
21:27 8.7 4.3 74 1024.4
21:36 8.5 4.1 74 1024.6
21:47 8.3 4.3 76 1024.5
21:57 8.1 4.1 76 1024.7
22:07 8 4.2 77 1024.7
22:17 8 4 76 1024.8
22:27 7.9 4.1 77 1024.8
22:37 7.9 4.7 80 1024.8
22:47 7.9 4.8 81 1025
22:57 7.8 4.7 81 1025.2
23:07 7.8 4.6 80 1025
23:17 7.8 4.6 80 1025
23:28 7.8 4.7 81 1025.2
23:37 7.8 4.9 82 1025.3
23:47 7.8 4.9 82 1025
23:57 7.8 5.1 83 1025.2

DAY STATISTIC

2018-06-22
TEMPERATURE
AVERAGE
12.3
HIGH
15.7
19:16
LOW
7.8
22:57
PRESSURE
AVERAGE
1021.9
HIGH
1025.3
23:37
LOW
1018.0
00:00
DEWPOINT
AVERAGE
5.3
HIGH
11.5
00:00
LOW
1.0
13:14
HUMIDITY
AVERAGE
63
HIGH
83
23:57
LOW
40
13:14
TEMPERATURE (°C)
LOW
7.8
HIGH
15.7
AVERAGE
12.3
PRESSURE (hpa)
LOW
1018.0
HIGH
1025.3
AVERAGE
1021.9
DEVICE